sensor_id;sensor_type;location;lat;lon;timestamp;P1;durP1;ratioP1;P2;durP2;ratioP2
4148;SDS011;2088;51.032;7.082;2024-02-15T00:02:06;2.33;;;1.43;;
4148;SDS011;2088;51.032;7.082;2024-02-15T00:04:33;3.83;;;1.90;;
4148;SDS011;2088;51.032;7.082;2024-02-15T00:07:00;2.70;;;1.77;;
4148;SDS011;2088;51.032;7.082;2024-02-15T00:09:27;2.10;;;1.80;;
4148;SDS011;2088;51.032;7.082;2024-02-15T00:11:56;3.30;;;1.67;;
4148;SDS011;2088;51.032;7.082;2024-02-15T00:14:24;2.20;;;1.43;;
4148;SDS011;2088;51.032;7.082;2024-02-15T00:16:53;1.80;;;1.70;;
4148;SDS011;2088;51.032;7.082;2024-02-15T00:19:20;7.47;;;1.80;;
4148;SDS011;2088;51.032;7.082;2024-02-15T00:21:48;1.67;;;1.33;;
4148;SDS011;2088;51.032;7.082;2024-02-15T00:24:15;1.73;;;1.60;;
4148;SDS011;2088;51.032;7.082;2024-02-15T00:26:42;1.83;;;1.50;;
4148;SDS011;2088;51.032;7.082;2024-02-15T00:29:10;2.73;;;1.70;;
4148;SDS011;2088;51.032;7.082;2024-02-15T00:31:37;4.00;;;1.60;;
4148;SDS011;2088;51.032;7.082;2024-02-15T00:34:05;7.93;;;1.97;;
4148;SDS011;2088;51.032;7.082;2024-02-15T00:36:33;1.73;;;1.57;;
4148;SDS011;2088;51.032;7.082;2024-02-15T00:39:00;5.80;;;1.83;;
4148;SDS011;2088;51.032;7.082;2024-02-15T00:41:29;3.73;;;1.70;;
4148;SDS011;2088;51.032;7.082;2024-02-15T00:43:56;2.10;;;1.33;;
4148;SDS011;2088;51.032;7.082;2024-02-15T00:46:24;2.73;;;1.70;;
4148;SDS011;2088;51.032;7.082;2024-02-15T00:48:52;3.87;;;1.73;;
4148;SDS011;2088;51.032;7.082;2024-02-15T00:51:20;2.70;;;2.10;;
4148;SDS011;2088;51.032;7.082;2024-02-15T00:53:47;2.03;;;1.50;;
4148;SDS011;2088;51.032;7.082;2024-02-15T00:56:14;3.13;;;1.90;;
4148;SDS011;2088;51.032;7.082;2024-02-15T00:58:41;3.60;;;1.80;;
4148;SDS011;2088;51.032;7.082;2024-02-15T01:01:08;2.70;;;2.30;;
4148;SDS011;2088;51.032;7.082;2024-02-15T01:03:37;3.20;;;1.93;;
4148;SDS011;2088;51.032;7.082;2024-02-15T01:06:04;2.10;;;1.90;;
4148;SDS011;2088;51.032;7.082;2024-02-15T01:08:31;3.23;;;1.90;;
4148;SDS011;2088;51.032;7.082;2024-02-15T01:10:58;5.13;;;1.57;;
4148;SDS011;2088;51.032;7.082;2024-02-15T01:13:26;4.80;;;1.70;;
4148;SDS011;2088;51.032;7.082;2024-02-15T01:15:53;5.67;;;2.20;;
4148;SDS011;2088;51.032;7.082;2024-02-15T01:18:20;1.93;;;1.60;;
4148;SDS011;2088;51.032;7.082;2024-02-15T01:20:49;4.53;;;1.93;;
4148;SDS011;2088;51.032;7.082;2024-02-15T01:23:17;4.50;;;2.90;;
4148;SDS011;2088;51.032;7.082;2024-02-15T01:25:45;2.97;;;2.20;;
4148;SDS011;2088;51.032;7.082;2024-02-15T01:28:12;2.50;;;2.27;;
4148;SDS011;2088;51.032;7.082;2024-02-15T01:30:39;2.20;;;1.60;;
4148;SDS011;2088;51.032;7.082;2024-02-15T01:33:08;1.83;;;1.57;;
4148;SDS011;2088;51.032;7.082;2024-02-15T01:35:36;2.57;;;1.93;;
4148;SDS011;2088;51.032;7.082;2024-02-15T01:38:04;4.27;;;2.00;;
4148;SDS011;2088;51.032;7.082;2024-02-15T01:40:32;17.03;;;2.00;;
4148;SDS011;2088;51.032;7.082;2024-02-15T01:43:00;4.93;;;1.90;;
4148;SDS011;2088;51.032;7.082;2024-02-15T01:45:27;8.83;;;2.40;;
4148;SDS011;2088;51.032;7.082;2024-02-15T01:47:54;2.40;;;1.70;;
4148;SDS011;2088;51.032;7.082;2024-02-15T01:50:21;4.53;;;1.83;;
4148;SDS011;2088;51.032;7.082;2024-02-15T01:52:49;5.07;;;2.10;;
4148;SDS011;2088;51.032;7.082;2024-02-15T01:55:19;3.07;;;2.50;;
4148;SDS011;2088;51.032;7.082;2024-02-15T01:57:46;3.83;;;1.80;;
4148;SDS011;2088;51.032;7.082;2024-02-15T02:00:15;2.90;;;2.00;;
4148;SDS011;2088;51.032;7.082;2024-02-15T02:02:44;2.90;;;2.10;;
4148;SDS011;2088;51.032;7.082;2024-02-15T02:05:11;6.23;;;2.10;;
4148;SDS011;2088;51.032;7.082;2024-02-15T02:07:38;3.87;;;2.47;;
4148;SDS011;2088;51.032;7.082;2024-02-15T02:10:06;2.00;;;1.90;;
4148;SDS011;2088;51.032;7.082;2024-02-15T02:12:36;3.30;;;1.93;;
4148;SDS011;2088;51.032;7.082;2024-02-15T02:15:04;13.47;;;2.43;;
4148;SDS011;2088;51.032;7.082;2024-02-15T02:17:32;4.13;;;3.43;;
4148;SDS011;2088;51.032;7.082;2024-02-15T02:19:59;5.37;;;2.53;;
4148;SDS011;2088;51.032;7.082;2024-02-15T02:22:26;5.10;;;2.50;;
4148;SDS011;2088;51.032;7.082;2024-02-15T02:25:00;4.30;;;2.53;;
4148;SDS011;2088;51.032;7.082;2024-02-15T02:27:28;4.37;;;2.37;;
4148;SDS011;2088;51.032;7.082;2024-02-15T02:29:56;5.67;;;2.80;;
4148;SDS011;2088;51.032;7.082;2024-02-15T02:32:24;5.43;;;2.03;;
4148;SDS011;2088;51.032;7.082;2024-02-15T02:34:52;6.60;;;1.93;;
4148;SDS011;2088;51.032;7.082;2024-02-15T02:37:22;3.50;;;2.60;;
4148;SDS011;2088;51.032;7.082;2024-02-15T02:39:49;4.13;;;2.47;;
4148;SDS011;2088;51.032;7.082;2024-02-15T02:42:17;5.87;;;2.30;;
4148;SDS011;2088;51.032;7.082;2024-02-15T02:44:46;5.33;;;2.30;;
4148;SDS011;2088;51.032;7.082;2024-02-15T02:47:13;5.23;;;2.20;;
4148;SDS011;2088;51.032;7.082;2024-02-15T02:49:40;3.50;;;2.07;;
4148;SDS011;2088;51.032;7.082;2024-02-15T02:52:07;3.97;;;2.80;;
4148;SDS011;2088;51.032;7.082;2024-02-15T02:54:34;3.67;;;2.17;;
4148;SDS011;2088;51.032;7.082;2024-02-15T02:57:01;7.73;;;2.67;;
4148;SDS011;2088;51.032;7.082;2024-02-15T02:59:32;8.27;;;2.37;;
4148;SDS011;2088;51.032;7.082;2024-02-15T03:02:00;4.90;;;2.50;;
4148;SDS011;2088;51.032;7.082;2024-02-15T03:04:28;6.70;;;2.50;;
4148;SDS011;2088;51.032;7.082;2024-02-15T03:06:57;5.50;;;2.90;;
4148;SDS011;2088;51.032;7.082;2024-02-15T03:09:24;9.63;;;2.60;;
4148;SDS011;2088;51.032;7.082;2024-02-15T03:11:54;2.40;;;2.20;;
4148;SDS011;2088;51.032;7.082;2024-02-15T03:14:22;3.43;;;2.03;;
4148;SDS011;2088;51.032;7.082;2024-02-15T03:16:51;4.77;;;2.30;;
4148;SDS011;2088;51.032;7.082;2024-02-15T03:19:20;2.43;;;2.03;;
4148;SDS011;2088;51.032;7.082;2024-02-15T03:21:48;3.10;;;1.97;;
4148;SDS011;2088;51.032;7.082;2024-02-15T03:24:18;12.60;;;2.23;;
4148;SDS011;2088;51.032;7.082;2024-02-15T03:26:45;2.37;;;2.17;;
4148;SDS011;2088;51.032;7.082;2024-02-15T03:29:12;2.03;;;1.83;;
4148;SDS011;2088;51.032;7.082;2024-02-15T03:31:39;3.17;;;1.97;;
4148;SDS011;2088;51.032;7.082;2024-02-15T03:34:07;9.93;;;2.90;;
4148;SDS011;2088;51.032;7.082;2024-02-15T03:36:35;3.30;;;1.97;;
4148;SDS011;2088;51.032;7.082;2024-02-15T03:39:03;3.73;;;2.30;;
4148;SDS011;2088;51.032;7.082;2024-02-15T03:41:31;3.33;;;2.07;;
4148;SDS011;2088;51.032;7.082;2024-02-15T03:43:58;3.63;;;2.30;;
4148;SDS011;2088;51.032;7.082;2024-02-15T03:46:26;8.40;;;2.43;;
4148;SDS011;2088;51.032;7.082;2024-02-15T03:48:53;7.13;;;1.90;;
4148;SDS011;2088;51.032;7.082;2024-02-15T03:51:23;3.00;;;2.57;;
4148;SDS011;2088;51.032;7.082;2024-02-15T03:53:50;5.43;;;2.03;;
4148;SDS011;2088;51.032;7.082;2024-02-15T03:56:18;3.40;;;2.63;;
4148;SDS011;2088;51.032;7.082;2024-02-15T03:58:46;8.50;;;2.93;;
4148;SDS011;2088;51.032;7.082;2024-02-15T04:01:14;2.37;;;2.17;;
4148;SDS011;2088;51.032;7.082;2024-02-15T04:03:41;5.57;;;2.97;;
4148;SDS011;2088;51.032;7.082;2024-02-15T04:06:09;13.43;;;2.67;;
4148;SDS011;2088;51.032;7.082;2024-02-15T04:08:38;8.53;;;2.83;;
4148;SDS011;2088;51.032;7.082;2024-02-15T04:11:05;3.20;;;2.90;;
4148;SDS011;2088;51.032;7.082;2024-02-15T04:13:32;3.07;;;2.80;;
4148;SDS011;2088;51.032;7.082;2024-02-15T04:15:59;7.60;;;2.80;;
4148;SDS011;2088;51.032;7.082;2024-02-15T04:18:26;4.23;;;3.20;;
4148;SDS011;2088;51.032;7.082;2024-02-15T04:20:57;4.90;;;3.00;;
4148;SDS011;2088;51.032;7.082;2024-02-15T04:23:24;10.63;;;2.50;;
4148;SDS011;2088;51.032;7.082;2024-02-15T04:25:52;2.40;;;2.10;;
4148;SDS011;2088;51.032;7.082;2024-02-15T04:28:19;3.23;;;2.37;;
4148;SDS011;2088;51.032;7.082;2024-02-15T04:30:46;7.33;;;2.80;;
4148;SDS011;2088;51.032;7.082;2024-02-15T04:33:14;2.87;;;2.40;;
4148;SDS011;2088;51.032;7.082;2024-02-15T04:35:41;4.27;;;2.43;;
4148;SDS011;2088;51.032;7.082;2024-02-15T04:38:09;2.80;;;2.27;;
4148;SDS011;2088;51.032;7.082;2024-02-15T04:40:36;2.07;;;1.93;;
4148;SDS011;2088;51.032;7.082;2024-02-15T04:43:06;9.40;;;2.90;;
4148;SDS011;2088;51.032;7.082;2024-02-15T04:45:33;2.23;;;2.03;;
4148;SDS011;2088;51.032;7.082;2024-02-15T04:48:01;3.00;;;1.90;;
4148;SDS011;2088;51.032;7.082;2024-02-15T04:50:28;2.83;;;2.10;;
4148;SDS011;2088;51.032;7.082;2024-02-15T04:52:55;4.87;;;1.90;;
4148;SDS011;2088;51.032;7.082;2024-02-15T04:55:22;3.03;;;1.83;;
4148;SDS011;2088;51.032;7.082;2024-02-15T04:57:51;3.80;;;2.27;;
4148;SDS011;2088;51.032;7.082;2024-02-15T05:00:22;5.20;;;1.60;;
4148;SDS011;2088;51.032;7.082;2024-02-15T05:02:50;1.73;;;1.63;;
4148;SDS011;2088;51.032;7.082;2024-02-15T05:05:18;5.63;;;1.77;;
4148;SDS011;2088;51.032;7.082;2024-02-15T05:07:45;2.90;;;2.10;;
4148;SDS011;2088;51.032;7.082;2024-02-15T05:10:14;1.77;;;1.67;;
4148;SDS011;2088;51.032;7.082;2024-02-15T05:12:42;3.37;;;1.53;;
4148;SDS011;2088;51.032;7.082;2024-02-15T05:15:09;6.60;;;2.03;;
4148;SDS011;2088;51.032;7.082;2024-02-15T05:17:38;2.57;;;1.47;;
4148;SDS011;2088;51.032;7.082;2024-02-15T05:20:07;7.97;;;3.23;;
4148;SDS011;2088;51.032;7.082;2024-02-15T05:22:36;3.50;;;1.70;;
4148;SDS011;2088;51.032;7.082;2024-02-15T05:25:04;4.50;;;1.63;;
4148;SDS011;2088;51.032;7.082;2024-02-15T05:27:32;7.70;;;3.20;;
4148;SDS011;2088;51.032;7.082;2024-02-15T05:30:01;3.13;;;1.93;;
4148;SDS011;2088;51.032;7.082;2024-02-15T05:32:31;2.40;;;1.70;;
4148;SDS011;2088;51.032;7.082;2024-02-15T05:35:00;5.40;;;4.30;;
4148;SDS011;2088;51.032;7.082;2024-02-15T05:37:27;4.80;;;2.13;;
4148;SDS011;2088;51.032;7.082;2024-02-15T05:39:55;5.67;;;1.90;;
4148;SDS011;2088;51.032;7.082;2024-02-15T05:42:22;3.00;;;2.10;;
4148;SDS011;2088;51.032;7.082;2024-02-15T05:44:50;4.43;;;2.10;;
4148;SDS011;2088;51.032;7.082;2024-02-15T05:47:17;2.90;;;2.30;;
4148;SDS011;2088;51.032;7.082;2024-02-15T05:49:44;5.30;;;2.37;;
4148;SDS011;2088;51.032;7.082;2024-02-15T05:52:13;7.60;;;2.77;;
4148;SDS011;2088;51.032;7.082;2024-02-15T05:54:40;3.30;;;2.70;;
4148;SDS011;2088;51.032;7.082;2024-02-15T05:57:07;5.13;;;2.30;;
4148;SDS011;2088;51.032;7.082;2024-02-15T05:59:34;4.23;;;2.23;;
4148;SDS011;2088;51.032;7.082;2024-02-15T06:02:01;7.47;;;2.37;;
4148;SDS011;2088;51.032;7.082;2024-02-15T06:04:29;5.53;;;2.97;;
4148;SDS011;2088;51.032;7.082;2024-02-15T06:06:56;10.63;;;3.43;;
4148;SDS011;2088;51.032;7.082;2024-02-15T06:09:27;2.80;;;2.60;;
4148;SDS011;2088;51.032;7.082;2024-02-15T06:11:55;9.67;;;2.67;;
4148;SDS011;2088;51.032;7.082;2024-02-15T06:14:23;2.50;;;1.93;;
4148;SDS011;2088;51.032;7.082;2024-02-15T06:16:50;3.77;;;2.33;;
4148;SDS011;2088;51.032;7.082;2024-02-15T06:19:20;6.10;;;2.80;;
4148;SDS011;2088;51.032;7.082;2024-02-15T06:21:47;5.37;;;2.70;;
4148;SDS011;2088;51.032;7.082;2024-02-15T06:24:14;8.93;;;2.70;;
4148;SDS011;2088;51.032;7.082;2024-02-15T06:26:43;4.63;;;2.30;;
4148;SDS011;2088;51.032;7.082;2024-02-15T06:29:11;5.57;;;2.53;;
4148;SDS011;2088;51.032;7.082;2024-02-15T06:31:55;3.00;;;1.97;;
4148;SDS011;2088;51.032;7.082;2024-02-15T06:34:42;6.97;;;2.47;;
4148;SDS011;2088;51.032;7.082;2024-02-15T06:37:34;2.30;;;2.10;;
4148;SDS011;2088;51.032;7.082;2024-02-15T06:40:19;5.10;;;1.63;;
4148;SDS011;2088;51.032;7.082;2024-02-15T06:42:49;4.97;;;2.37;;
4148;SDS011;2088;51.032;7.082;2024-02-15T06:45:16;5.07;;;2.03;;
4148;SDS011;2088;51.032;7.082;2024-02-15T06:47:44;2.50;;;2.30;;
4148;SDS011;2088;51.032;7.082;2024-02-15T06:50:12;4.47;;;2.00;;
4148;SDS011;2088;51.032;7.082;2024-02-15T06:52:39;4.83;;;2.17;;
4148;SDS011;2088;51.032;7.082;2024-02-15T06:55:07;4.47;;;1.87;;
4148;SDS011;2088;51.032;7.082;2024-02-15T06:57:38;8.37;;;1.90;;
4148;SDS011;2088;51.032;7.082;2024-02-15T07:00:09;2.33;;;1.90;;
4148;SDS011;2088;51.032;7.082;2024-02-15T07:02:40;4.47;;;2.47;;
4148;SDS011;2088;51.032;7.082;2024-02-15T07:05:09;3.70;;;2.00;;
4148;SDS011;2088;51.032;7.082;2024-02-15T07:07:36;6.90;;;2.50;;
4148;SDS011;2088;51.032;7.082;2024-02-15T07:10:08;4.60;;;2.00;;
4148;SDS011;2088;51.032;7.082;2024-02-15T07:12:35;5.80;;;2.17;;
4148;SDS011;2088;51.032;7.082;2024-02-15T07:15:03;2.73;;;1.90;;
4148;SDS011;2088;51.032;7.082;2024-02-15T07:17:33;3.77;;;2.13;;
4148;SDS011;2088;51.032;7.082;2024-02-15T07:20:02;7.83;;;2.40;;
4148;SDS011;2088;51.032;7.082;2024-02-15T07:22:30;2.83;;;1.97;;
4148;SDS011;2088;51.032;7.082;2024-02-15T07:24:57;5.13;;;1.80;;
4148;SDS011;2088;51.032;7.082;2024-02-15T07:27:25;1.90;;;1.50;;
4148;SDS011;2088;51.032;7.082;2024-02-15T07:29:52;4.50;;;2.27;;
4148;SDS011;2088;51.032;7.082;2024-02-15T07:32:21;14.17;;;1.83;;
4148;SDS011;2088;51.032;7.082;2024-02-15T07:34:49;7.03;;;1.97;;
4148;SDS011;2088;51.032;7.082;2024-02-15T07:37:16;3.67;;;2.20;;
4148;SDS011;2088;51.032;7.082;2024-02-15T07:39:43;3.50;;;2.57;;
4148;SDS011;2088;51.032;7.082;2024-02-15T07:42:10;6.97;;;3.00;;
4148;SDS011;2088;51.032;7.082;2024-02-15T07:44:37;8.43;;;3.07;;
4148;SDS011;2088;51.032;7.082;2024-02-15T07:47:04;5.13;;;2.07;;
4148;SDS011;2088;51.032;7.082;2024-02-15T07:49:32;13.63;;;2.50;;
4148;SDS011;2088;51.032;7.082;2024-02-15T07:52:01;6.27;;;2.20;;
4148;SDS011;2088;51.032;7.082;2024-02-15T07:54:29;5.53;;;2.30;;
4148;SDS011;2088;51.032;7.082;2024-02-15T07:56:58;5.03;;;2.63;;
4148;SDS011;2088;51.032;7.082;2024-02-15T07:59:25;4.40;;;2.10;;
4148;SDS011;2088;51.032;7.082;2024-02-15T08:01:53;4.60;;;2.60;;
4148;SDS011;2088;51.032;7.082;2024-02-15T08:04:20;9.23;;;2.27;;
4148;SDS011;2088;51.032;7.082;2024-02-15T08:06:48;9.90;;;2.53;;
4148;SDS011;2088;51.032;7.082;2024-02-15T08:09:18;12.77;;;2.60;;
4148;SDS011;2088;51.032;7.082;2024-02-15T08:11:48;15.80;;;2.50;;
4148;SDS011;2088;51.032;7.082;2024-02-15T08:14:16;4.90;;;2.17;;
4148;SDS011;2088;51.032;7.082;2024-02-15T08:16:45;4.53;;;1.80;;
4148;SDS011;2088;51.032;7.082;2024-02-15T08:19:12;3.17;;;2.00;;
4148;SDS011;2088;51.032;7.082;2024-02-15T08:21:39;2.93;;;1.87;;
4148;SDS011;2088;51.032;7.082;2024-02-15T08:24:08;8.97;;;3.00;;
4148;SDS011;2088;51.032;7.082;2024-02-15T08:26:37;2.93;;;2.10;;
4148;SDS011;2088;51.032;7.082;2024-02-15T08:29:05;7.20;;;2.50;;
4148;SDS011;2088;51.032;7.082;2024-02-15T08:31:32;5.07;;;2.23;;
4148;SDS011;2088;51.032;7.082;2024-02-15T08:33:59;3.63;;;1.67;;
4148;SDS011;2088;51.032;7.082;2024-02-15T08:36:26;5.30;;;1.80;;
4148;SDS011;2088;51.032;7.082;2024-02-15T08:38:53;7.97;;;1.90;;
4148;SDS011;2088;51.032;7.082;2024-02-15T08:41:20;2.47;;;1.63;;
4148;SDS011;2088;51.032;7.082;2024-02-15T08:43:53;5.97;;;2.57;;
4148;SDS011;2088;51.032;7.082;2024-02-15T08:46:21;2.10;;;1.90;;
4148;SDS011;2088;51.032;7.082;2024-02-15T08:48:50;4.10;;;1.83;;
4148;SDS011;2088;51.032;7.082;2024-02-15T08:51:17;5.90;;;1.93;;
4148;SDS011;2088;51.032;7.082;2024-02-15T08:53:45;2.73;;;1.73;;
4148;SDS011;2088;51.032;7.082;2024-02-15T08:56:12;4.77;;;2.13;;
4148;SDS011;2088;51.032;7.082;2024-02-15T08:58:40;2.60;;;1.90;;
4148;SDS011;2088;51.032;7.082;2024-02-15T09:01:09;5.33;;;1.73;;
4148;SDS011;2088;51.032;7.082;2024-02-15T09:03:38;4.03;;;1.63;;
4148;SDS011;2088;51.032;7.082;2024-02-15T09:06:05;5.63;;;2.03;;
4148;SDS011;2088;51.032;7.082;2024-02-15T09:08:32;8.53;;;2.03;;
4148;SDS011;2088;51.032;7.082;2024-02-15T09:10:59;8.50;;;2.00;;
4148;SDS011;2088;51.032;7.082;2024-02-15T09:13:26;5.47;;;2.00;;
4148;SDS011;2088;51.032;7.082;2024-02-15T09:15:53;6.63;;;1.60;;
4148;SDS011;2088;51.032;7.082;2024-02-15T09:18:22;6.10;;;2.00;;
4148;SDS011;2088;51.032;7.082;2024-02-15T09:20:49;4.50;;;2.57;;
4148;SDS011;2088;51.032;7.082;2024-02-15T09:23:20;4.63;;;2.60;;
4148;SDS011;2088;51.032;7.082;2024-02-15T09:25:48;5.23;;;2.53;;
4148;SDS011;2088;51.032;7.082;2024-02-15T09:28:16;7.87;;;2.00;;
4148;SDS011;2088;51.032;7.082;2024-02-15T09:30:47;2.33;;;2.13;;
4148;SDS011;2088;51.032;7.082;2024-02-15T09:33:16;5.73;;;2.47;;
4148;SDS011;2088;51.032;7.082;2024-02-15T09:35:44;3.63;;;2.73;;
4148;SDS011;2088;51.032;7.082;2024-02-15T09:38:11;7.53;;;3.10;;
4148;SDS011;2088;51.032;7.082;2024-02-15T09:40:41;3.50;;;1.80;;
4148;SDS011;2088;51.032;7.082;2024-02-15T09:43:08;6.70;;;2.20;;
4148;SDS011;2088;51.032;7.082;2024-02-15T09:45:38;2.63;;;2.40;;
4148;SDS011;2088;51.032;7.082;2024-02-15T09:48:05;4.00;;;2.37;;
4148;SDS011;2088;51.032;7.082;2024-02-15T09:50:34;4.33;;;1.63;;
4148;SDS011;2088;51.032;7.082;2024-02-15T09:53:03;6.67;;;2.00;;
4148;SDS011;2088;51.032;7.082;2024-02-15T09:55:31;4.33;;;2.10;;
4148;SDS011;2088;51.032;7.082;2024-02-15T09:58:00;12.33;;;1.97;;
4148;SDS011;2088;51.032;7.082;2024-02-15T10:00:29;6.83;;;1.90;;
4148;SDS011;2088;51.032;7.082;2024-02-15T10:02:56;5.30;;;2.00;;
4148;SDS011;2088;51.032;7.082;2024-02-15T10:05:26;5.70;;;1.93;;
4148;SDS011;2088;51.032;7.082;2024-02-15T10:07:53;4.00;;;1.57;;
4148;SDS011;2088;51.032;7.082;2024-02-15T10:10:22;8.07;;;2.37;;
4148;SDS011;2088;51.032;7.082;2024-02-15T10:12:50;5.80;;;1.50;;
4148;SDS011;2088;51.032;7.082;2024-02-15T10:15:30;3.00;;;1.80;;
4148;SDS011;2088;51.032;7.082;2024-02-15T10:17:58;7.13;;;1.57;;
4148;SDS011;2088;51.032;7.082;2024-02-15T10:20:26;2.80;;;1.50;;
4148;SDS011;2088;51.032;7.082;2024-02-15T10:22:53;5.60;;;1.47;;
4148;SDS011;2088;51.032;7.082;2024-02-15T10:25:36;5.27;;;1.77;;
4148;SDS011;2088;51.032;7.082;2024-02-15T10:28:04;2.17;;;1.50;;
4148;SDS011;2088;51.032;7.082;2024-02-15T10:30:33;4.03;;;1.20;;
4148;SDS011;2088;51.032;7.082;2024-02-15T10:33:00;7.00;;;1.67;;
4148;SDS011;2088;51.032;7.082;2024-02-15T10:35:27;3.87;;;1.50;;
4148;SDS011;2088;51.032;7.082;2024-02-15T10:38:04;3.03;;;1.63;;
4148;SDS011;2088;51.032;7.082;2024-02-15T10:40:32;3.20;;;1.23;;
4148;SDS011;2088;51.032;7.082;2024-02-15T10:43:01;2.80;;;1.37;;
4148;SDS011;2088;51.032;7.082;2024-02-15T10:45:29;3.30;;;1.30;;
4148;SDS011;2088;51.032;7.082;2024-02-15T10:47:57;1.50;;;1.40;;
4148;SDS011;2088;51.032;7.082;2024-02-15T10:50:24;2.80;;;1.40;;
4148;SDS011;2088;51.032;7.082;2024-02-15T10:52:53;5.17;;;1.30;;
4148;SDS011;2088;51.032;7.082;2024-02-15T10:55:22;2.23;;;1.27;;
4148;SDS011;2088;51.032;7.082;2024-02-15T10:57:51;10.13;;;1.27;;
4148;SDS011;2088;51.032;7.082;2024-02-15T11:00:19;7.20;;;1.70;;
4148;SDS011;2088;51.032;7.082;2024-02-15T11:02:53;3.00;;;1.70;;
4148;SDS011;2088;51.032;7.082;2024-02-15T11:05:21;5.57;;;1.57;;
4148;SDS011;2088;51.032;7.082;2024-02-15T11:07:49;2.37;;;1.60;;
4148;SDS011;2088;51.032;7.082;2024-02-15T11:10:18;7.23;;;1.40;;
4148;SDS011;2088;51.032;7.082;2024-02-15T11:12:46;3.03;;;1.50;;
4148;SDS011;2088;51.032;7.082;2024-02-15T11:15:26;7.70;;;1.53;;
4148;SDS011;2088;51.032;7.082;2024-02-15T11:18:06;4.10;;;1.30;;
4148;SDS011;2088;51.032;7.082;2024-02-15T11:20:46;9.87;;;1.20;;
4148;SDS011;2088;51.032;7.082;2024-02-15T11:23:23;4.57;;;1.70;;
4148;SDS011;2088;51.032;7.082;2024-02-15T11:25:51;3.80;;;1.23;;
4148;SDS011;2088;51.032;7.082;2024-02-15T11:28:37;4.87;;;1.87;;
4148;SDS011;2088;51.032;7.082;2024-02-15T11:31:09;2.03;;;1.07;;
4148;SDS011;2088;51.032;7.082;2024-02-15T11:33:38;5.00;;;1.20;;
4148;SDS011;2088;51.032;7.082;2024-02-15T11:36:06;6.30;;;1.37;;
4148;SDS011;2088;51.032;7.082;2024-02-15T11:38:33;2.80;;;1.10;;
4148;SDS011;2088;51.032;7.082;2024-02-15T11:41:01;1.50;;;1.20;;
4148;SDS011;2088;51.032;7.082;2024-02-15T11:43:47;3.23;;;1.20;;
4148;SDS011;2088;51.032;7.082;2024-02-15T11:46:21;2.07;;;1.73;;
4148;SDS011;2088;51.032;7.082;2024-02-15T11:48:49;2.90;;;1.57;;
4148;SDS011;2088;51.032;7.082;2024-02-15T11:51:30;3.83;;;1.23;;
4148;SDS011;2088;51.032;7.082;2024-02-15T11:54:07;2.30;;;1.27;;
4148;SDS011;2088;51.032;7.082;2024-02-15T11:56:49;4.50;;;1.67;;
4148;SDS011;2088;51.032;7.082;2024-02-15T11:59:19;6.83;;;2.03;;
4148;SDS011;2088;51.032;7.082;2024-02-15T12:01:59;5.33;;;1.70;;
4148;SDS011;2088;51.032;7.082;2024-02-15T12:04:43;3.83;;;1.30;;
4148;SDS011;2088;51.032;7.082;2024-02-15T12:07:28;4.10;;;0.97;;
4148;SDS011;2088;51.032;7.082;2024-02-15T12:10:16;2.80;;;1.00;;
4148;SDS011;2088;51.032;7.082;2024-02-15T12:13:01;3.93;;;1.30;;
4148;SDS011;2088;51.032;7.082;2024-02-15T12:15:56;1.87;;;1.17;;
4148;SDS011;2088;51.032;7.082;2024-02-15T12:18:42;1.30;;;1.00;;
4148;SDS011;2088;51.032;7.082;2024-02-15T12:21:09;3.37;;;1.10;;
4148;SDS011;2088;51.032;7.082;2024-02-15T12:23:39;2.10;;;1.40;;
4148;SDS011;2088;51.032;7.082;2024-02-15T12:26:06;2.47;;;1.17;;
4148;SDS011;2088;51.032;7.082;2024-02-15T12:28:34;4.80;;;1.60;;
4148;SDS011;2088;51.032;7.082;2024-02-15T12:31:01;6.80;;;1.33;;
4148;SDS011;2088;51.032;7.082;2024-02-15T12:33:31;2.60;;;2.40;;
4148;SDS011;2088;51.032;7.082;2024-02-15T12:36:05;6.43;;;1.73;;
4148;SDS011;2088;51.032;7.082;2024-02-15T12:38:32;2.83;;;1.33;;
4148;SDS011;2088;51.032;7.082;2024-02-15T12:41:02;2.07;;;1.53;;
4148;SDS011;2088;51.032;7.082;2024-02-15T12:43:29;9.40;;;1.70;;
4148;SDS011;2088;51.032;7.082;2024-02-15T12:45:56;2.47;;;1.50;;
4148;SDS011;2088;51.032;7.082;2024-02-15T12:48:23;11.80;;;2.57;;
4148;SDS011;2088;51.032;7.082;2024-02-15T12:50:51;2.23;;;1.40;;
4148;SDS011;2088;51.032;7.082;2024-02-15T12:53:24;5.33;;;1.73;;
4148;SDS011;2088;51.032;7.082;2024-02-15T12:55:54;1.53;;;1.30;;
4148;SDS011;2088;51.032;7.082;2024-02-15T12:58:22;6.03;;;1.40;;
4148;SDS011;2088;51.032;7.082;2024-02-15T13:00:54;3.83;;;1.37;;
4148;SDS011;2088;51.032;7.082;2024-02-15T13:03:23;2.40;;;1.60;;
4148;SDS011;2088;51.032;7.082;2024-02-15T13:05:51;2.43;;;1.43;;
4148;SDS011;2088;51.032;7.082;2024-02-15T13:08:18;1.40;;;1.30;;
4148;SDS011;2088;51.032;7.082;2024-02-15T13:10:46;2.37;;;1.50;;
4148;SDS011;2088;51.032;7.082;2024-02-15T13:13:13;1.73;;;1.20;;
4148;SDS011;2088;51.032;7.082;2024-02-15T13:15:41;3.27;;;1.63;;
4148;SDS011;2088;51.032;7.082;2024-02-15T13:18:09;5.80;;;1.37;;
4148;SDS011;2088;51.032;7.082;2024-02-15T13:20:38;2.43;;;1.60;;
4148;SDS011;2088;51.032;7.082;2024-02-15T13:23:05;4.10;;;1.23;;
4148;SDS011;2088;51.032;7.082;2024-02-15T13:25:34;1.70;;;1.20;;
4148;SDS011;2088;51.032;7.082;2024-02-15T13:28:04;3.40;;;1.50;;
4148;SDS011;2088;51.032;7.082;2024-02-15T13:30:31;3.80;;;1.30;;
4148;SDS011;2088;51.032;7.082;2024-02-15T13:32:59;10.50;;;1.27;;
4148;SDS011;2088;51.032;7.082;2024-02-15T13:35:27;5.87;;;1.20;;
4148;SDS011;2088;51.032;7.082;2024-02-15T13:37:54;4.30;;;1.60;;
4148;SDS011;2088;51.032;7.082;2024-02-15T13:40:23;1.90;;;1.10;;
4148;SDS011;2088;51.032;7.082;2024-02-15T13:42:51;4.40;;;1.40;;
4148;SDS011;2088;51.032;7.082;2024-02-15T13:45:20;3.23;;;1.47;;
4148;SDS011;2088;51.032;7.082;2024-02-15T13:47:48;4.67;;;1.20;;
4148;SDS011;2088;51.032;7.082;2024-02-15T13:50:16;2.03;;;1.60;;
4148;SDS011;2088;51.032;7.082;2024-02-15T13:52:44;3.53;;;1.43;;
4148;SDS011;2088;51.032;7.082;2024-02-15T13:55:11;4.73;;;1.30;;
4148;SDS011;2088;51.032;7.082;2024-02-15T13:57:39;3.60;;;1.67;;
4148;SDS011;2088;51.032;7.082;2024-02-15T14:00:07;2.90;;;1.10;;
4148;SDS011;2088;51.032;7.082;2024-02-15T14:02:39;2.37;;;1.10;;
4148;SDS011;2088;51.032;7.082;2024-02-15T14:05:08;5.93;;;1.50;;
4148;SDS011;2088;51.032;7.082;2024-02-15T14:07:36;3.03;;;1.50;;
4148;SDS011;2088;51.032;7.082;2024-02-15T14:10:04;2.17;;;1.40;;
4148;SDS011;2088;51.032;7.082;2024-02-15T14:12:32;3.50;;;1.43;;
4148;SDS011;2088;51.032;7.082;2024-02-15T14:14:59;5.83;;;1.50;;
4148;SDS011;2088;51.032;7.082;2024-02-15T14:17:26;3.80;;;1.20;;
4148;SDS011;2088;51.032;7.082;2024-02-15T14:19:55;4.37;;;1.47;;
4148;SDS011;2088;51.032;7.082;2024-02-15T14:22:22;4.33;;;1.43;;
4148;SDS011;2088;51.032;7.082;2024-02-15T14:24:53;2.87;;;1.40;;
4148;SDS011;2088;51.032;7.082;2024-02-15T14:27:20;4.57;;;1.73;;
4148;SDS011;2088;51.032;7.082;2024-02-15T14:29:47;2.20;;;1.20;;
4148;SDS011;2088;51.032;7.082;2024-02-15T14:32:28;4.30;;;1.37;;
4148;SDS011;2088;51.032;7.082;2024-02-15T14:35:14;3.33;;;1.20;;
4148;SDS011;2088;51.032;7.082;2024-02-15T14:37:42;7.70;;;1.47;;
4148;SDS011;2088;51.032;7.082;2024-02-15T14:40:09;7.20;;;1.47;;
4148;SDS011;2088;51.032;7.082;2024-02-15T14:42:39;4.70;;;1.27;;
4148;SDS011;2088;51.032;7.082;2024-02-15T14:45:07;4.03;;;1.47;;
4148;SDS011;2088;51.032;7.082;2024-02-15T14:47:34;3.50;;;1.47;;
4148;SDS011;2088;51.032;7.082;2024-02-15T14:50:01;5.70;;;1.17;;
4148;SDS011;2088;51.032;7.082;2024-02-15T14:52:30;3.07;;;1.50;;
4148;SDS011;2088;51.032;7.082;2024-02-15T14:54:57;3.23;;;1.70;;
4148;SDS011;2088;51.032;7.082;2024-02-15T14:57:24;2.00;;;1.30;;
4148;SDS011;2088;51.032;7.082;2024-02-15T14:59:51;3.87;;;1.23;;
4148;SDS011;2088;51.032;7.082;2024-02-15T15:02:18;1.77;;;1.33;;
4148;SDS011;2088;51.032;7.082;2024-02-15T15:04:45;1.57;;;1.33;;
4148;SDS011;2088;51.032;7.082;2024-02-15T15:07:45;3.20;;;1.43;;
4148;SDS011;2088;51.032;7.082;2024-02-15T15:10:29;2.23;;;1.60;;
4148;SDS011;2088;51.032;7.082;2024-02-15T15:13:14;2.50;;;1.20;;
4148;SDS011;2088;51.032;7.082;2024-02-15T15:15:42;2.20;;;1.23;;
4148;SDS011;2088;51.032;7.082;2024-02-15T15:18:11;2.80;;;1.30;;
4148;SDS011;2088;51.032;7.082;2024-02-15T15:20:38;2.20;;;1.30;;
4148;SDS011;2088;51.032;7.082;2024-02-15T15:23:06;2.20;;;1.33;;
4148;SDS011;2088;51.032;7.082;2024-02-15T15:25:34;2.30;;;1.57;;
4148;SDS011;2088;51.032;7.082;2024-02-15T15:28:02;1.53;;;1.13;;